Time;durP1;ratioP1;P1;durP2;ratioP2;P2;SDS_P1;SDS_P2;PMS_P1;PMS_P2;Temp;Humidity;BMP_temperature;BMP_pressure;BME280_temperature;BME280_humidity;BME280_pressure;Samples;Min_cycle;Max_cycle;Signal;HPM_P1;HPM_P2
2022/10/24 00:00:26;;;;;;;4.80;1.43;;;16.30;36.20;;;;;;5078343;28;20206;-56
2022/10/24 00:02:53;;;;;;;10.90;1.87;;;16.30;1.00;;;;;;5084951;28;20663;-56
2022/10/24 00:05:20;;;;;;;3.57;1.60;;;16.30;1.00;;;;;;5065638;28;20234;-56
2022/10/24 00:07:49;;;;;;;3.73;1.30;;;16.30;99.90;;;;;;5080092;28;20655;-56
2022/10/24 00:10:16;;;;;;;4.40;1.70;;;16.30;99.90;;;;;;5078829;28;20221;-56
2022/10/24 00:12:43;;;;;;;6.30;1.87;;;16.40;1.00;;;;;;5083984;28;20197;-56
2022/10/24 00:15:12;;;;;;;4.80;1.80;;;16.30;99.90;;;;;;5079108;28;20205;-56
2022/10/24 00:17:38;;;;;;;4.30;1.50;;;16.30;1.00;;;;;;5083372;28;20216;-57
2022/10/24 00:20:06;;;;;;;6.90;3.10;;;16.30;99.90;;;;;;5077012;28;20201;-56
2022/10/24 00:22:32;;;;;;;6.03;1.97;;;16.30;1.00;;;;;;5065804;28;20208;-56
2022/10/24 00:24:59;;;;;;;4.87;1.50;;;16.30;69.60;;;;;;5078849;28;20777;-56
2022/10/24 00:27:26;;;;;;;6.50;1.77;;;16.30;1.00;;;;;;5080855;28;20210;-54
2022/10/24 00:29:53;;;;;;;8.30;1.37;;;16.30;99.90;;;;;;5062585;28;20222;-55
2022/10/24 00:32:20;;;;;;;7.00;1.40;;;16.40;1.00;;;;;;5082600;28;20196;-56
2022/10/24 00:34:46;;;;;;;3.67;1.70;;;16.40;96.70;;;;;;5080253;28;20194;-56
2022/10/24 00:37:13;;;;;;;4.33;1.27;;;16.40;1.00;;;;;;5078462;28;20206;-56
2022/10/24 00:39:40;;;;;;;3.97;1.33;;;16.40;1.00;;;;;;5080269;28;20220;-56
2022/10/24 00:42:07;;;;;;;2.33;1.47;;;16.40;1.00;;;;;;5084028;28;20192;-56
2022/10/24 00:44:37;;;;;;;8.57;1.37;;;16.30;1.00;;;;;;5081345;28;20571;-56
2022/10/24 00:47:09;;;;;;;4.30;1.30;;;16.30;1.00;;;;;;5081886;28;20392;-56
2022/10/24 00:49:59;;;;;;;4.03;1.43;;;16.40;31.50;;;;;;5081027;28;20201;-55
2022/10/24 00:52:33;;;;;;;6.27;1.57;;;16.40;99.90;;;;;;5080629;28;20208;-56
2022/10/24 00:55:01;;;;;;;5.90;1.60;;;16.30;1.00;;;;;;5078817;28;20198;-56
2022/10/24 00:57:50;;;;;;;3.40;1.60;;;16.40;99.90;;;;;;5083667;28;20231;-56
2022/10/24 01:00:26;;;;;;;2.20;1.60;;;16.50;1.00;;;;;;5079399;28;20683;-61
2022/10/24 01:02:53;;;;;;;8.00;2.10;;;16.50;1.00;;;;;;5079267;28;20214;-55
2022/10/24 01:05:22;;;;;;;5.00;1.60;;;16.50;99.90;;;;;;5085208;28;20201;-56
2022/10/24 01:08:07;;;;;;;4.93;1.60;;;16.50;99.90;;;;;;5083791;28;20213;-56
2022/10/24 01:10:34;;;;;;;4.77;1.77;;;16.50;99.90;;;;;;5084688;28;20223;-55
2022/10/24 01:13:36;;;;;;;6.00;1.73;;;16.50;99.90;;;;;;5084524;28;20194;-57
2022/10/24 01:16:30;;;;;;;4.93;1.77;;;16.50;99.90;;;;;;5082565;28;20215;-56
2022/10/24 01:19:19;;;;;;;4.03;1.90;;;16.50;99.90;;;;;;5075633;28;20234;-56
2022/10/24 01:21:55;;;;;;;6.30;2.17;;;16.40;1.00;;;;;;5082828;28;22052;-56
2022/10/24 01:24:46;;;;;;;4.83;1.47;;;16.40;99.90;;;;;;5081145;28;20671;-56
2022/10/24 01:27:25;;;;;;;7.30;1.80;;;16.40;99.90;;;;;;5084714;28;20727;-56
2022/10/24 01:30:13;;;;;;;4.43;1.77;;;16.40;99.90;;;;;;5081440;28;20326;-56
2022/10/24 01:32:49;;;;;;;5.67;1.60;;;16.40;99.90;;;;;;5082209;28;20189;-56
2022/10/24 01:35:43;;;;;;;6.53;1.90;;;16.40;99.90;;;;;;5087560;28;20202;-55
2022/10/24 01:38:34;;;;;;;4.70;1.87;;;16.30;99.90;;;;;;5082070;28;20205;-56
2022/10/24 01:41:08;;;;;;;6.03;2.00;;;16.30;99.90;;;;;;5087925;28;20212;-55
2022/10/24 01:43:41;;;;;;;5.10;1.90;;;16.40;99.90;;;;;;5079242;28;20209;-56
2022/10/24 01:46:13;;;;;;;5.20;1.70;;;16.30;1.00;;;;;;5084923;28;20296;-56
2022/10/24 01:48:45;;;;;;;3.47;1.63;;;16.30;1.00;;;;;;5083746;28;20212;-56
2022/10/24 01:51:14;;;;;;;5.37;2.07;;;16.30;1.00;;;;;;5082732;28;20209;-56
2022/10/24 01:53:42;;;;;;;4.83;1.90;;;16.30;99.90;;;;;;5082601;28;20193;-56
2022/10/24 01:56:09;;;;;;;6.37;2.20;;;16.20;99.90;;;;;;5085749;28;20595;-56
2022/10/24 01:58:36;;;;;;;6.20;1.90;;;16.30;1.00;;;;;;5080565;28;20202;-56
2022/10/24 02:01:12;;;;;;;4.10;1.63;;;16.30;1.00;;;;;;5082987;28;20297;-55
2022/10/24 02:03:47;;;;;;;4.77;1.80;;;16.30;1.00;;;;;;5082935;28;20205;-55
2022/10/24 02:06:36;;;;;;;2.67;1.70;;;16.30;1.00;;;;;;5082027;28;20252;-56
2022/10/24 02:09:09;;;;;;;4.53;1.60;;;16.30;99.90;;;;;;5082693;28;20791;-54
2022/10/24 02:11:37;;;;;;;4.70;1.40;;;16.30;99.90;;;;;;5082004;28;20335;-56
2022/10/24 02:14:14;;;;;;;4.17;1.63;;;16.30;99.90;;;;;;5080751;28;20190;-56
2022/10/24 02:16:42;;;;;;;4.67;1.50;;;16.30;5.30;;;;;;5063056;28;20283;-56
2022/10/24 02:19:12;;;;;;;4.93;1.40;;;16.20;99.90;;;;;;5083796;28;20310;-56
2022/10/24 02:22:21;;;;;;;4.60;1.73;;;16.20;1.00;;;;;;5082752;28;20594;-56
2022/10/24 02:25:14;;;;;;;3.83;1.50;;;16.30;1.00;;;;;;5078925;28;20523;-56
2022/10/24 02:27:56;;;;;;;6.43;2.30;;;16.30;1.00;;;;;;5082505;28;20200;-56
2022/10/24 02:30:25;;;;;;;2.87;1.27;;;16.30;1.00;;;;;;5077138;28;20212;-56
2022/10/24 02:32:56;;;;;;;3.33;1.60;;;16.30;1.00;;;;;;5079056;28;20760;-56
2022/10/24 02:35:29;;;;;;;6.80;1.53;;;16.30;99.90;;;;;;5080660;28;20201;-55
2022/10/24 02:38:02;;;;;;;2.67;1.50;;;16.30;99.90;;;;;;5081975;28;20241;-56
2022/10/24 02:40:30;;;;;;;3.63;1.10;;;16.30;99.90;;;;;;5079361;28;20211;-55
2022/10/24 02:42:58;;;;;;;4.83;1.20;;;16.40;9.50;;;;;;5083183;28;20287;-56
2022/10/24 02:45:25;;;;;;;5.37;1.20;;;16.50;1.00;;;;;;5078820;28;20211;-56
2022/10/24 02:48:01;;;;;;;3.97;1.37;;;16.50;1.00;;;;;;5083010;28;20223;-56
2022/10/24 02:50:30;;;;;;;3.10;1.20;;;16.50;1.00;;;;;;5080150;28;20215;-56
2022/10/24 02:52:57;;;;;;;2.60;1.27;;;16.40;1.00;;;;;;5079765;28;20196;-56
2022/10/24 02:55:24;;;;;;;3.87;1.20;;;16.40;1.00;;;;;;5067187;28;20194;-56
2022/10/24 02:57:50;;;;;;;4.27;1.37;;;16.50;1.00;;;;;;5077867;28;20314;-56
2022/10/24 03:00:17;;;;;;;2.23;1.13;;;16.50;1.00;;;;;;5079043;28;20188;-56
2022/10/24 03:02:44;;;;;;;4.13;1.20;;;16.60;1.00;;;;;;5061387;28;20225;-56
2022/10/24 03:05:11;;;;;;;2.50;1.07;;;16.60;1.00;;;;;;5065942;28;20201;-54
2022/10/24 03:07:38;;;;;;;6.93;1.23;;;16.60;99.90;;;;;;5079935;28;20213;-58
2022/10/24 03:10:05;;;;;;;2.83;1.00;;;16.70;1.00;;;;;;5081703;28;20301;-56
2022/10/24 03:12:32;;;;;;;5.13;1.10;;;16.70;99.90;;;;;;5083847;28;20287;-59
2022/10/24 03:14:59;;;;;;;2.30;0.80;;;16.70;99.90;;;;;;5079610;28;20480;-60
2022/10/24 03:17:25;;;;;;;4.03;1.10;;;16.70;99.90;;;;;;5080294;28;20218;-56
2022/10/24 03:19:52;;;;;;;4.97;1.00;;;16.70;99.90;;;;;;5082692;28;20201;-57
2022/10/24 03:22:19;;;;;;;6.17;1.00;;;16.60;99.90;;;;;;5081783;28;20855;-56
2022/10/24 03:24:46;;;;;;;5.10;1.20;;;16.70;99.90;;;;;;5084322;28;20257;-56
2022/10/24 03:27:21;;;;;;;6.83;1.10;;;16.70;99.90;;;;;;5065952;28;20195;-55
2022/10/24 03:29:48;;;;;;;3.87;1.10;;;16.60;99.90;;;;;;5080046;28;20198;-56
2022/10/24 03:32:15;;;;;;;3.27;0.90;;;16.70;99.90;;;;;;5060614;28;20213;-55
2022/10/24 03:34:42;;;;;;;3.67;1.10;;;16.60;99.90;;;;;;5075327;28;20197;-54
2022/10/24 03:37:08;;;;;;;3.90;1.10;;;16.70;99.90;;;;;;5090007;28;20207;-56
2022/10/24 03:39:35;;;;;;;4.53;1.00;;;16.80;99.90;;;;;;5088362;28;20560;-56
2022/10/24 03:42:02;;;;;;;3.30;1.10;;;16.80;99.90;;;;;;5086265;28;20216;-56
2022/10/24 03:44:29;;;;;;;3.33;0.87;;;16.80;99.90;;;;;;5084648;28;20216;-56
2022/10/24 03:46:56;;;;;;;3.03;1.33;;;16.80;99.90;;;;;;5086705;28;20195;-55
2022/10/24 03:49:23;;;;;;;3.93;1.20;;;16.80;99.90;;;;;;5081775;28;20648;-56
2022/10/24 03:51:49;;;;;;;2.77;0.80;;;16.70;99.90;;;;;;5082436;28;20217;-55
2022/10/24 03:54:16;;;;;;;2.40;0.80;;;16.70;99.90;;;;;;5068821;28;20210;-56
2022/10/24 03:56:44;;;;;;;3.13;0.73;;;16.70;99.90;;;;;;5087403;28;20231;-56
2022/10/24 03:59:11;;;;;;;3.90;0.70;;;16.70;99.90;;;;;;5086256;28;20280;-56
2022/10/24 04:01:37;;;;;;;7.43;1.73;;;16.60;99.90;;;;;;5083940;28;20662;-56
2022/10/24 04:04:05;;;;;;;3.27;1.00;;;16.60;99.90;;;;;;5086268;28;20292;-56
2022/10/24 04:06:31;;;;;;;5.00;1.03;;;16.50;1.00;;;;;;5082935;28;20201;-56
2022/10/24 04:09:02;;;;;;;4.70;1.00;;;16.50;1.00;;;;;;5088067;28;20232;-56
2022/10/24 04:11:29;;;;;;;4.87;1.10;;;16.50;1.00;;;;;;5086080;28;20221;-56
2022/10/24 04:13:56;;;;;;;6.10;1.07;;;16.50;1.00;;;;;;5086556;28;20228;-56
2022/10/24 04:16:23;;;;;;;4.20;1.17;;;16.40;1.00;;;;;;5083199;28;20190;-55
2022/10/24 04:18:50;;;;;;;5.97;1.00;;;16.40;1.00;;;;;;5080995;28;20187;-56
2022/10/24 04:21:17;;;;;;;3.30;1.03;;;16.40;1.00;;;;;;5085215;28;20199;-56
2022/10/24 04:23:47;;;;;;;2.90;2.03;;;16.30;1.00;;;;;;5080485;28;20196;-56
2022/10/24 04:26:17;;;;;;;3.70;1.13;;;16.30;1.00;;;;;;5083099;28;20230;-56
2022/10/24 04:28:45;;;;;;;7.03;0.93;;;16.40;1.00;;;;;;5083641;28;20195;-57
2022/10/24 04:31:13;;;;;;;4.30;1.30;;;16.30;1.00;;;;;;5082478;28;20920;-56
2022/10/24 04:33:45;;;;;;;5.93;1.80;;;16.30;1.00;;;;;;5085473;28;20199;-54
2022/10/24 04:36:12;;;;;;;4.27;1.17;;;16.30;1.00;;;;;;5069369;28;20192;-56
2022/10/24 04:38:39;;;;;;;3.50;1.20;;;16.30;1.00;;;;;;5082386;28;20203;-56
2022/10/24 04:41:05;;;;;;;3.90;1.33;;;16.30;1.00;;;;;;5085586;28;20198;-56
2022/10/24 04:43:38;;;;;;;3.80;1.20;;;16.30;1.00;;;;;;5088457;28;20855;-56
2022/10/24 04:46:05;;;;;;;4.50;1.90;;;16.30;1.00;;;;;;5090745;28;20295;-56
2022/10/24 04:48:32;;;;;;;5.33;0.97;;;16.30;1.00;;;;;;5090938;28;20225;-56
2022/10/24 04:50:59;;;;;;;6.20;1.13;;;16.30;1.00;;;;;;5091384;28;20222;-55
2022/10/24 04:53:25;;;;;;;2.27;0.93;;;16.40;1.00;;;;;;5091119;28;20197;-56
2022/10/24 04:55:52;;;;;;;4.80;1.10;;;16.40;1.00;;;;;;5091412;28;20226;-56
2022/10/24 04:58:19;;;;;;;11.00;1.20;;;16.40;1.00;;;;;;5087261;28;20671;-56
2022/10/24 05:00:48;;;;;;;2.87;1.10;;;16.40;1.00;;;;;;5070737;28;20290;-56
2022/10/24 05:03:19;;;;;;;4.37;1.03;;;16.40;1.00;;;;;;5082243;28;20645;-56
2022/10/24 05:05:46;;;;;;;3.73;1.00;;;16.40;1.00;;;;;;5090111;28;20219;-56
2022/10/24 05:08:13;;;;;;;4.87;1.40;;;16.40;1.00;;;;;;5071262;28;20236;-56
2022/10/24 05:10:40;;;;;;;4.67;1.20;;;16.40;1.00;;;;;;5067740;28;20313;-56
2022/10/24 05:13:08;;;;;;;6.33;1.50;;;16.40;1.00;;;;;;5087006;28;20193;-56
2022/10/24 05:15:35;;;;;;;5.60;1.37;;;16.30;1.00;;;;;;5047780;28;20210;-56
2022/10/24 05:18:03;;;;;;;2.63;1.00;;;16.40;1.00;;;;;;5084090;28;20228;-56
2022/10/24 05:20:30;;;;;;;4.37;1.40;;;16.40;1.00;;;;;;5085799;28;20245;-56
2022/10/24 05:22:57;;;;;;;5.53;1.30;;;16.40;1.00;;;;;;5084684;28;20267;-59
2022/10/24 05:25:24;;;;;;;4.93;1.40;;;16.40;1.00;;;;;;5086014;28;20287;-55
2022/10/24 05:27:51;;;;;;;6.63;1.33;;;16.40;1.00;;;;;;5085683;28;20299;-56
2022/10/24 05:30:18;;;;;;;4.80;1.30;;;16.40;1.00;;;;;;5083112;28;20205;-56
2022/10/24 05:32:45;;;;;;;2.33;0.70;;;16.40;1.00;;;;;;5083718;28;20206;-56
2022/10/24 05:35:12;;;;;;;3.53;1.37;;;16.40;1.00;;;;;;5085128;28;20716;-55
2022/10/24 05:37:39;;;;;;;5.97;1.30;;;16.40;1.00;;;;;;5067512;28;20198;-56
2022/10/24 05:40:07;;;;;;;2.93;1.00;;;16.30;1.00;;;;;;5084296;28;20285;-56
2022/10/24 05:42:35;;;;;;;6.23;1.40;;;16.40;1.00;;;;;;5085662;28;20692;-55
2022/10/24 05:45:02;;;;;;;3.43;1.23;;;16.40;1.00;;;;;;5082900;28;20206;-56
2022/10/24 05:47:29;;;;;;;6.43;1.20;;;16.50;1.00;;;;;;5090178;28;20291;-57
2022/10/24 05:49:55;;;;;;;5.73;1.83;;;16.50;1.00;;;;;;5089419;28;20194;-57
2022/10/24 05:52:22;;;;;;;6.97;1.10;;;16.50;1.00;;;;;;5088817;28;20206;-57
2022/10/24 05:54:49;;;;;;;6.80;1.20;;;16.50;1.00;;;;;;5090448;28;20208;-56
2022/10/24 05:57:32;;;;;;;5.57;1.30;;;16.50;1.00;;;;;;5077715;28;20656;-56
2022/10/24 05:59:59;;;;;;;3.40;1.07;;;16.50;1.00;;;;;;4712598;28;9999881;-56
2022/10/24 06:02:26;;;;;;;8.17;1.20;;;16.50;1.00;;;;;;5068855;28;20302;-56
2022/10/24 06:04:54;;;;;;;5.07;1.20;;;16.40;1.00;;;;;;5075857;28;20206;-56
2022/10/24 06:07:22;;;;;;;5.67;1.40;;;16.40;1.00;;;;;;5080399;28;20226;-56
2022/10/24 06:09:48;;;;;;;4.37;0.83;;;16.40;1.00;;;;;;5089916;28;20671;-56
2022/10/24 06:12:15;;;;;;;4.30;1.37;;;16.40;1.00;;;;;;5084101;28;20211;-56
2022/10/24 06:14:43;;;;;;;7.50;1.10;;;16.40;1.00;;;;;;5076788;28;20666;-55
2022/10/24 06:17:10;;;;;;;5.33;1.43;;;16.50;1.00;;;;;;5078797;28;20194;-56
2022/10/24 06:19:38;;;;;;;3.93;1.07;;;16.50;1.00;;;;;;5078558;28;20195;-56
2022/10/24 06:22:06;;;;;;;5.80;1.33;;;16.50;1.00;;;;;;5076612;28;20194;-55
2022/10/24 06:24:35;;;;;;;3.33;1.20;;;16.50;1.00;;;;;;5049134;28;20215;-56
2022/10/24 06:27:02;;;;;;;6.20;0.93;;;16.40;1.00;;;;;;5082653;28;20192;-55
2022/10/24 06:29:30;;;;;;;6.43;1.40;;;16.40;1.00;;;;;;5083415;28;20205;-56
2022/10/24 06:31:57;;;;;;;8.23;1.20;;;16.40;1.00;;;;;;5080473;28;20608;-56
2022/10/24 06:34:24;;;;;;;6.30;1.13;;;16.40;1.00;;;;;;5079877;28;20327;-56
2022/10/24 06:36:51;;;;;;;7.53;1.20;;;16.40;1.00;;;;;;5077465;28;20202;-56
2022/10/24 06:39:17;;;;;;;4.90;2.43;;;16.40;1.00;;;;;;5081479;28;20261;-56
2022/10/24 06:41:45;;;;;;;5.13;1.10;;;16.30;1.00;;;;;;5088261;28;20219;-56
2022/10/24 06:44:11;;;;;;;4.03;1.10;;;16.30;15.50;;;;;;5080821;28;20210;-56
2022/10/24 06:46:38;;;;;;;6.00;0.90;;;16.30;99.90;;;;;;5087017;28;20207;-56
2022/10/24 06:49:05;;;;;;;2.40;1.00;;;16.30;92.80;;;;;;5084994;28;20202;-56
2022/10/24 06:51:32;;;;;;;3.77;1.10;;;16.30;99.90;;;;;;5093634;28;20207;-56
2022/10/24 06:53:59;;;;;;;7.67;2.27;;;16.30;99.90;;;;;;5085169;28;20707;-56
2022/10/24 06:56:26;;;;;;;5.53;1.30;;;16.30;99.90;;;;;;5084473;28;20940;-55
2022/10/24 06:58:54;;;;;;;8.07;1.20;;;16.30;99.90;;;;;;5062981;28;20203;-56
2022/10/24 07:01:23;;;;;;;7.00;1.17;;;16.30;99.90;;;;;;5062592;28;20212;-56
2022/10/24 07:03:50;;;;;;;10.70;1.47;;;16.20;99.90;;;;;;5062499;28;20202;-56
2022/10/24 07:06:28;;;;;;;6.63;1.57;;;16.30;99.90;;;;;;5069627;28;20192;-57
2022/10/24 07:08:57;;;;;;;3.57;1.20;;;16.30;99.90;;;;;;5060731;28;20199;-57
2022/10/24 07:11:25;;;;;;;3.33;0.90;;;16.30;99.90;;;;;;5063990;28;21517;-56
2022/10/24 07:13:52;;;;;;;5.43;1.20;;;16.30;1.00;;;;;;5057959;28;20200;-57
2022/10/24 07:16:26;;;;;;;5.77;1.33;;;16.30;99.90;;;;;;5052407;28;20192;-57
2022/10/24 07:18:52;;;;;;;7.40;1.50;;;16.30;99.90;;;;;;5056075;28;20193;-59
2022/10/24 07:21:23;;;;;;;7.53;1.67;;;16.40;99.90;;;;;;5059155;28;20561;-56
2022/10/24 07:23:50;;;;;;;7.20;1.10;;;16.30;1.00;;;;;;5057980;28;20546;-56
2022/10/24 07:26:18;;;;;;;3.77;1.17;;;16.30;1.00;;;;;;5059523;28;20192;-56
2022/10/24 07:28:46;;;;;;;7.20;1.33;;;16.30;1.00;;;;;;5056287;28;20660;-56
2022/10/24 07:31:16;;;;;;;4.83;1.20;;;16.30;1.00;;;;;;5060823;28;20192;-56
2022/10/24 07:33:43;;;;;;;4.07;1.00;;;16.30;1.00;;;;;;5059862;28;20201;-57
2022/10/24 07:36:14;;;;;;;6.43;0.80;;;16.30;1.00;;;;;;5053976;28;20220;-57
2022/10/24 07:38:40;;;;;;;4.80;1.73;;;16.20;99.90;;;;;;5067613;28;20196;-57
2022/10/24 07:41:07;;;;;;;3.00;0.93;;;16.20;1.00;;;;;;5060780;28;20605;-58
2022/10/24 07:43:34;;;;;;;7.40;1.67;;;16.10;1.00;;;;;;5060153;28;20209;-57
2022/10/24 07:46:05;;;;;;;5.57;1.37;;;16.10;99.90;;;;;;5057327;28;20194;-56
2022/10/24 07:48:32;;;;;;;7.73;1.87;;;16.20;99.90;;;;;;5067167;28;20204;-57
2022/10/24 07:50:59;;;;;;;3.07;1.20;;;16.10;99.90;;;;;;5062318;28;20292;-57
2022/10/24 07:53:26;;;;;;;4.60;1.27;;;16.10;1.00;;;;;;5067927;28;20224;-56
2022/10/24 07:55:53;;;;;;;6.70;1.37;;;16.10;1.00;;;;;;5067707;28;20198;-57
2022/10/24 07:58:20;;;;;;;9.50;1.53;;;16.00;1.00;;;;;;5066806;28;20230;-57
2022/10/24 08:00:47;;;;;;;5.37;1.40;;;16.10;1.00;;;;;;5066215;28;20282;-57
2022/10/24 08:03:13;;;;;;;5.17;1.17;;;16.20;99.90;;;;;;5051962;28;20282;-57
2022/10/24 08:05:41;;;;;;;4.67;0.93;;;16.20;1.00;;;;;;5053796;28;20194;-60
2022/10/24 08:08:08;;;;;;;6.03;1.20;;;16.10;99.90;;;;;;5059317;28;20196;-57
2022/10/24 08:10:55;;;;;;;5.30;1.20;;;16.00;1.00;;;;;;5062374;28;20230;-57
2022/10/24 08:13:22;;;;;;;2.63;1.00;;;16.00;99.90;;;;;;5072011;28;20318;-57
2022/10/24 08:15:49;;;;;;;5.40;1.20;;;16.20;1.00;;;;;;5061431;28;20516;-57
2022/10/24 08:18:16;;;;;;;4.87;1.20;;;16.50;27.10;;;;;;5060115;28;20192;-58
2022/10/24 08:20:42;;;;;;;3.80;1.00;;;16.70;57.70;;;;;;5061087;28;20201;-57
2022/10/24 08:23:11;;;;;;;2.90;1.50;;;16.80;1.00;;;;;;5063625;28;20655;-58
2022/10/24 08:25:40;;;;;;;4.00;0.90;;;16.90;1.00;;;;;;5056001;28;20215;-58
2022/10/24 08:28:07;;;;;;;2.77;0.83;;;16.90;1.00;;;;;;5055792;28;20215;-57
2022/10/24 08:30:35;;;;;;;5.03;0.93;;;17.00;1.00;;;;;;5059575;28;20579;-57
2022/10/24 08:33:01;;;;;;;5.67;0.97;;;17.20;99.90;;;;;;5064655;28;20244;-56
2022/10/24 08:35:28;;;;;;;5.10;1.00;;;17.40;99.90;;;;;;5054049;28;20336;-56
2022/10/24 08:37:55;;;;;;;3.27;1.00;;;17.20;99.90;;;;;;5062515;28;20197;-63
2022/10/24 08:40:22;;;;;;;4.90;0.87;;;17.30;99.90;;;;;;5058807;28;20197;-63
2022/10/24 08:42:49;;;;;;;4.27;1.10;;;17.20;98.70;;;;;;5061375;28;20205;-62
2022/10/24 08:45:29;;;;;;;3.77;1.13;;;17.10;99.90;;;;;;5053455;28;20831;-64
2022/10/24 08:48:07;;;;;;;4.00;0.90;;;17.10;99.90;;;;;;5053720;28;20211;-63
2022/10/24 08:50:35;;;;;;;3.73;1.20;;;17.10;99.90;;;;;;5060540;28;21986;-63
2022/10/24 08:53:12;;;;;;;5.80;1.37;;;17.10;99.90;;;;;;5071026;28;20326;-56
2022/10/24 08:55:48;;;;;;;3.83;0.90;;;17.20;1.00;;;;;;5059895;28;20288;-58
2022/10/24 08:58:30;;;;;;;5.27;1.27;;;17.20;28.10;;;;;;5050199;28;20233;-57
2022/10/24 09:01:00;;;;;;;4.67;1.00;;;17.40;1.00;;;;;;5056672;28;20288;-57
2022/10/24 09:03:45;;;;;;;6.70;1.00;;;17.50;1.00;;;;;;5056454;28;20294;-57
2022/10/24 09:06:30;;;;;;;5.50;0.93;;;17.60;1.00;;;;;;5056990;28;20212;-57
2022/10/24 09:09:02;;;;;;;5.00;1.00;;;17.80;1.00;;;;;;5051743;28;20215;-56
2022/10/24 09:11:44;;;;;;;7.37;1.17;;;17.90;99.90;;;;;;5057434;28;20332;-57
2022/10/24 09:14:13;;;;;;;6.47;1.20;;;18.00;99.90;;;;;;5070468;28;21238;-57
2022/10/24 09:16:41;;;;;;;4.70;0.97;;;18.20;99.90;;;;;;5055890;28;20198;-58
2022/10/24 09:19:18;;;;;;;4.80;1.30;;;18.20;91.30;;;;;;5058031;28;20555;-62
2022/10/24 09:21:46;;;;;;;8.53;1.10;;;18.00;44.70;;;;;;5058756;28;20197;-58
2022/10/24 09:24:52;;;;;;;7.23;0.80;;;18.20;1.00;;;;;;5053749;28;20205;-58
2022/10/24 09:27:26;;;;;;;4.57;1.00;;;18.20;95.40;;;;;;5049089;28;20202;-62
2022/10/24 09:29:53;;;;;;;4.03;1.10;;;18.10;2.40;;;;;;5055017;28;20193;-63
2022/10/24 09:32:22;;;;;;;3.30;1.00;;;18.10;1.00;;;;;;5061684;28;20552;-58
2022/10/24 09:34:49;;;;;;;4.07;0.60;;;17.70;99.90;;;;;;5065327;28;20203;-57
2022/10/24 09:37:28;;;;;;;7.77;1.57;;;17.60;1.00;;;;;;5059036;28;20212;-58
2022/10/24 09:40:08;;;;;;;3.10;0.80;;;17.50;39.00;;;;;;5068088;28;20294;-58
2022/10/24 09:42:37;;;;;;;3.83;0.70;;;17.40;36.00;;;;;;5065909;28;20207;-58
2022/10/24 09:45:22;;;;;;;4.80;0.90;;;17.50;99.90;;;;;;5053498;28;20967;-58
2022/10/24 09:48:24;;;;;;;5.63;1.07;;;17.60;33.40;;;;;;5063324;28;20208;-58
2022/10/24 09:50:58;;;;;;;3.53;0.87;;;17.80;58.70;;;;;;5041648;28;20207;-57
2022/10/24 09:53:35;;;;;;;4.80;1.40;;;17.80;1.00;;;;;;5057128;28;20677;-58
2022/10/24 09:56:14;;;;;;;2.87;0.80;;;17.70;1.00;;;;;;5058792;28;20237;-58
2022/10/24 09:58:41;;;;;;;6.60;1.67;;;17.60;66.80;;;;;;5053795;28;20240;-61
2022/10/24 10:01:21;;;;;;;4.77;0.90;;;17.60;99.90;;;;;;5063013;28;20618;-58
2022/10/24 10:04:00;;;;;;;6.67;0.90;;;17.50;23.80;;;;;;5060173;28;20793;-59
2022/10/24 10:06:40;;;;;;;6.70;1.23;;;17.50;99.90;;;;;;5069773;28;20291;-58
2022/10/24 10:09:13;;;;;;;2.93;0.87;;;17.40;30.40;;;;;;5065766;28;20203;-57
2022/10/24 10:11:40;;;;;;;3.50;0.80;;;17.40;23.60;;;;;;5066367;28;20219;-58
2022/10/24 10:14:27;;;;;;;3.63;1.00;;;17.40;1.00;;;;;;5061419;28;20707;-58
2022/10/24 10:17:05;;;;;;;4.20;1.20;;;17.30;99.90;;;;;;5054804;28;20206;-58
2022/10/24 10:19:36;;;;;;;5.00;0.70;;;17.50;74.10;;;;;;5069466;28;20199;-58
2022/10/24 10:22:06;;;;;;;4.23;0.77;;;17.50;99.90;;;;;;5056071;28;20225;-58
2022/10/24 10:24:38;;;;;;;5.47;0.73;;;17.50;1.00;;;;;;5053637;28;20648;-58
2022/10/24 10:27:31;;;;;;;2.43;0.70;;;17.40;99.90;;;;;;5067217;28;20736;-57
2022/10/24 10:30:15;;;;;;;2.67;0.80;;;17.40;92.40;;;;;;5059061;28;20206;-58
2022/10/24 10:32:42;;;;;;;7.10;0.83;;;17.40;1.00;;;;;;5063745;28;20602;-57
2022/10/24 10:35:31;;;;;;;3.77;0.90;;;17.40;1.00;;;;;;5061297;28;20549;-58
2022/10/24 10:38:10;;;;;;;3.43;0.83;;;17.50;1.00;;;;;;5061479;28;20747;-60
2022/10/24 10:40:44;;;;;;;3.60;0.70;;;17.50;1.00;;;;;;5060444;28;20203;-58
2022/10/24 10:43:50;;;;;;;6.00;0.80;;;17.50;1.00;;;;;;5063438;28;20191;-57
2022/10/24 10:46:30;;;;;;;3.57;1.00;;;17.60;1.00;;;;;;5057459;28;20220;-58
2022/10/24 10:49:20;;;;;;;5.80;1.03;;;17.60;1.00;;;;;;5053510;28;20198;-57
2022/10/24 10:51:51;;;;;;;2.93;1.03;;;17.60;1.00;;;;;;5060315;28;20209;-58
2022/10/24 10:54:51;;;;;;;3.47;1.10;;;17.70;1.00;;;;;;5067505;28;20221;-57
2022/10/24 10:57:27;;;;;;;5.63;1.43;;;17.70;1.00;;;;;;5062269;28;20229;-60
2022/10/24 11:00:06;;;;;;;4.70;0.93;;;17.60;1.00;;;;;;5062831;28;20496;-60
2022/10/24 11:02:51;;;;;;;5.57;1.00;;;17.60;1.00;;;;;;5060807;28;20216;-57
2022/10/24 11:05:36;;;;;;;2.37;0.70;;;17.60;1.00;;;;;;5062070;28;20218;-57
2022/10/24 11:08:20;;;;;;;4.10;1.20;;;17.70;1.00;;;;;;5058660;28;20259;-58
2022/10/24 11:10:58;;;;;;;3.77;1.00;;;17.60;1.00;;;;;;5057288;28;20878;-57
2022/10/24 11:13:39;;;;;;;4.00;1.30;;;17.50;1.00;;;;;;5071924;28;20228;-58
2022/10/24 11:16:13;;;;;;;4.83;1.23;;;17.40;99.90;;;;;;5068649;28;20206;-58
2022/10/24 11:18:44;;;;;;;5.40;1.20;;;17.10;1.00;;;;;;5051362;28;20224;-57
2022/10/24 11:21:14;;;;;;;5.83;1.23;;;16.80;1.00;;;;;;5056994;28;20516;-57
2022/10/24 11:23:48;;;;;;;4.70;1.17;;;16.70;1.00;;;;;;5055394;28;20201;-57
2022/10/24 11:26:26;;;;;;;3.57;1.13;;;16.80;1.00;;;;;;5059636;28;20301;-57
2022/10/24 11:28:53;;;;;;;5.33;1.00;;;16.80;1.00;;;;;;5059701;28;20201;-58
2022/10/24 11:31:35;;;;;;;4.83;0.97;;;16.80;1.00;;;;;;5058140;28;20205;-57
2022/10/24 11:34:14;;;;;;;3.90;1.43;;;16.80;1.00;;;;;;5055846;28;20220;-57
2022/10/24 11:37:08;;;;;;;4.53;1.00;;;16.90;1.00;;;;;;5071179;28;20213;-57
2022/10/24 11:39:43;;;;;;;6.30;1.00;;;16.90;1.00;;;;;;5052855;28;20205;-57
2022/10/24 11:42:36;;;;;;;7.17;1.30;;;16.80;1.00;;;;;;5057000;28;20224;-57
2022/10/24 11:45:23;;;;;;;4.30;1.00;;;16.80;1.00;;;;;;5057037;28;20211;-57
2022/10/24 11:47:56;;;;;;;4.00;1.20;;;16.90;28.30;;;;;;5059805;28;20209;-57
2022/10/24 11:50:23;;;;;;;5.07;1.43;;;16.80;1.00;;;;;;5054236;28;20513;-58
2022/10/24 11:52:57;;;;;;;1.80;0.80;;;16.80;1.00;;;;;;5052141;28;20256;-57
2022/10/24 11:55:36;;;;;;;5.53;1.10;;;16.70;1.00;;;;;;5055339;28;20282;-57
2022/10/24 11:58:05;;;;;;;4.30;1.00;;;16.50;99.90;;;;;;5059234;28;20231;-58
2022/10/24 12:00:46;;;;;;;3.90;1.20;;;16.50;1.00;;;;;;5059902;28;20195;-57
2022/10/24 12:03:32;;;;;;;6.00;1.20;;;16.40;99.90;;;;;;5055795;28;20372;-57
2022/10/24 12:06:23;;;;;;;4.87;1.13;;;16.40;1.00;;;;;;5053787;28;20205;-56
2022/10/24 12:08:58;;;;;;;5.27;1.50;;;16.40;1.00;;;;;;5047401;28;20703;-56
2022/10/24 12:11:46;;;;;;;6.47;1.37;;;16.40;1.00;;;;;;5064621;28;20236;-56
2022/10/24 12:14:29;;;;;;;5.53;1.47;;;16.20;1.00;;;;;;5055005;28;20304;-56
2022/10/24 12:17:12;;;;;;;5.03;1.50;;;16.00;99.90;;;;;;5056015;28;20190;-55
2022/10/24 12:19:41;;;;;;;7.23;1.30;;;15.80;1.00;;;;;;5059521;28;20823;-56
2022/10/24 12:22:20;;;;;;;4.27;0.93;;;15.80;1.00;;;;;;5051000;28;20196;-56
2022/10/24 12:24:47;;;;;;;6.87;1.50;;;15.70;1.00;;;;;;5054979;28;20807;-56
2022/10/24 12:27:20;;;;;;;4.77;1.20;;;15.80;1.00;;;;;;5050518;28;20202;-56
2022/10/24 12:30:13;;;;;;;7.07;1.23;;;15.80;99.90;;;;;;5054310;28;20197;-56
2022/10/24 12:32:54;;;;;;;7.33;1.30;;;16.20;1.00;;;;;;5064027;28;20199;-56
2022/10/24 12:35:40;;;;;;;3.83;1.27;;;16.40;21.30;;;;;;5054507;28;20203;-56
2022/10/24 12:38:17;;;;;;;8.33;3.03;;;16.40;1.00;;;;;;5058308;28;20655;-61
2022/10/24 12:40:44;;;;;;;5.57;1.43;;;16.30;1.00;;;;;;5059221;28;20205;-61
2022/10/24 12:43:14;;;;;;;4.03;1.33;;;16.30;1.00;;;;;;5062060;28;20198;-61
2022/10/24 12:45:40;;;;;;;5.53;1.33;;;16.20;1.00;;;;;;5058429;28;20205;-61
2022/10/24 12:48:31;;;;;;;6.33;1.20;;;16.10;1.00;;;;;;5059377;28;20209;-61
2022/10/24 12:51:04;;;;;;;8.57;1.57;;;16.00;99.90;;;;;;5062010;28;20199;-63
2022/10/24 12:53:35;;;;;;;6.30;1.70;;;16.10;1.00;;;;;;5061319;28;20796;-62
2022/10/24 12:56:14;;;;;;;7.77;1.30;;;16.10;1.00;;;;;;5051319;28;20215;-62
2022/10/24 12:58:43;;;;;;;3.83;1.37;;;16.30;1.00;;;;;;5055321;28;20552;-62
2022/10/24 13:01:22;;;;;;;5.10;1.23;;;16.40;1.00;;;;;;5054147;28;20313;-62
2022/10/24 13:04:07;;;;;;;4.50;0.97;;;16.30;1.00;;;;;;5056671;28;20201;-56
2022/10/24 13:07:02;;;;;;;6.00;1.40;;;16.40;1.00;;;;;;5062331;28;20202;-55
2022/10/24 13:09:48;;;;;;;6.73;1.40;;;16.50;1.00;;;;;;5056766;28;20198;-55
2022/10/24 13:12:47;;;;;;;5.33;1.63;;;16.60;99.90;;;;;;5060007;28;20193;-56
2022/10/24 13:15:17;;;;;;;6.93;2.83;;;16.70;26.80;;;;;;5021413;28;20205;-56
2022/10/24 13:18:04;;;;;;;3.27;1.13;;;16.80;99.90;;;;;;5063188;28;20200;-55
2022/10/24 13:20:41;;;;;;;7.20;1.33;;;16.80;1.00;;;;;;5059217;28;20206;-56